Huvudsida
METAR-TAF:

METAR-TAF

Flygplatser :

Port Sudan, Sudan

latitud: 19-26N, longitud: 037-14E, höjd: 138 m

Aktuellt väderrapport

Denna rapport gjordes för 1 timme och 22 minuter sedan, klockan 20:00 UTC
Vind 7 kt från nord
Temperatur 34°C
Fuktighet 34%
Tryck 1009 hPa
Sikt 10 km eller mer
Inga moln under 1 500 m eller inga cumulonimbus

METAR: HSPN 182000Z 36007KT CAVOK 34/16 Q1009

Tid: 00:22 (21:22 UTC)

Väderprognos

Denna rapport gjordes för 4 timmar och 22 minuter sedan, klockan 17:00 UTC
Prognos gäller från 18 kl. 18 UTC till 19 kl. 24 UTC
Vind 8 kt från nord
Sikt 10 km eller mer
Inga moln under 1 500 m eller inga cumulonimbus
Temporärt
från 19 kl. 03 UTC till 19 kl. 06 UTC
Sikt: 6000 m
Blir
från 19 kl. 10 UTC till 19 kl. 12 UTC
Vind 12 kt från nordost i byarna ända upp till 22 kt

TAF: HSPN 181700Z 1818/1924 36008KT CAVOK TEMPO 1903/1906 6000 NSC BECMG 1910/1912 04012G22KT

Aktuella väderrapporter och prognoser från 4000 flygplatser (METAR- och TAF-rapporter).

De tillgängliga stationerna syns som gula och röda prickar på kartan.

För musen över prickarna för att se namnen på stationerna.

Klicka sedan för att få väderrapporter och prognoser.

För att ändra kartan: Klicka på de gröna knapparna med ett svart kors på för att zooma in; den gröna knappen med ett streck på för att zooma ut; eller på de gröna pilarna för angränsande kartor.


METAR-TAF: